createdAt,value
2023-11-18T00:01:53.881Z,23.20
2023-11-18T00:04:23.365Z,32.00
2023-11-18T00:09:26.045Z,23.60
2023-11-18T00:11:56.992Z,24.45
2023-11-18T00:14:26.150Z,24.40
2023-11-18T00:16:55.779Z,20.55
2023-11-18T00:19:25.120Z,22.05
2023-11-18T00:24:23.993Z,21.77
2023-11-18T00:26:56.463Z,22.23
2023-11-18T00:29:26.661Z,18.77
2023-11-18T00:31:56.900Z,20.45
2023-11-18T00:34:26.181Z,16.48
2023-11-18T00:36:55.578Z,22.40
2023-11-18T00:39:24.849Z,20.95
2023-11-18T00:44:28.422Z,22.08
2023-11-18T00:46:58.953Z,25.45
2023-11-18T00:49:28.226Z,23.27
2023-11-18T00:51:57.774Z,19.55
2023-11-18T00:54:28.081Z,26.35
2023-11-18T00:56:59.197Z,19.90
2023-11-18T00:59:28.941Z,21.58
2023-11-18T01:01:58.680Z,20.17
2023-11-18T01:04:28.047Z,16.95
2023-11-18T01:06:59.253Z,22.17
2023-11-18T01:09:29.310Z,21.17
2023-11-18T01:12:07.998Z,19.90
2023-11-18T01:14:40.323Z,22.02
2023-11-18T01:17:11.472Z,22.55
2023-11-18T01:19:40.944Z,17.08
2023-11-18T01:22:12.385Z,17.08
2023-11-18T01:24:42.092Z,15.32
2023-11-18T01:27:13.130Z,18.50
2023-11-18T01:29:42.496Z,19.15
2023-11-18T01:32:13.125Z,14.80
2023-11-18T01:34:44.748Z,15.40
2023-11-18T01:37:14.402Z,16.45
2023-11-18T01:39:43.939Z,15.98
2023-11-18T01:42:15.084Z,19.52
2023-11-18T01:44:44.351Z,22.90
2023-11-18T01:47:14.029Z,15.63
2023-11-18T01:49:44.730Z,18.33
2023-11-18T01:52:14.380Z,16.98
2023-11-18T01:54:46.020Z,15.73
2023-11-18T01:57:17.289Z,21.85
2023-11-18T01:59:46.552Z,15.43
2023-11-18T02:02:16.481Z,15.60
2023-11-18T02:07:16.560Z,13.88
2023-11-18T02:09:46.991Z,14.18
2023-11-18T02:12:29.402Z,14.70
2023-11-18T02:15:02.613Z,13.55
2023-11-18T02:17:34.012Z,14.85
2023-11-18T02:20:07.376Z,14.15
2023-11-18T02:22:37.272Z,15.30
2023-11-18T02:25:11.322Z,18.30
2023-11-18T02:27:42.338Z,17.08
2023-11-18T02:30:14.279Z,14.95
2023-11-18T02:32:55.010Z,14.57
2023-11-18T02:35:28.083Z,15.10
2023-11-18T02:37:59.745Z,13.48
2023-11-18T02:40:34.458Z,15.02
2023-11-18T02:43:07.278Z,13.73
2023-11-18T02:45:38.364Z,13.38
2023-11-18T02:48:08.854Z,14.63
2023-11-18T02:50:39.165Z,12.88
2023-11-18T02:53:10.770Z,14.75
2023-11-18T02:55:42.376Z,16.42
2023-11-18T02:58:13.238Z,11.15
2023-11-18T03:00:42.420Z,10.35
2023-11-18T03:03:12.181Z,13.18
2023-11-18T03:05:41.673Z,13.60
2023-11-18T03:08:12.755Z,15.23
2023-11-18T03:10:45.574Z,13.30
2023-11-18T03:13:16.504Z,14.32
2023-11-18T03:15:46.143Z,14.32
2023-11-18T03:18:16.511Z,14.02
2023-11-18T03:20:46.533Z,15.13
2023-11-18T03:23:15.932Z,14.93
2023-11-18T03:25:45.438Z,14.63
2023-11-18T03:31:19.337Z,14.32
2023-11-18T03:33:48.903Z,11.32
2023-11-18T03:36:19.175Z,13.13
2023-11-18T03:38:49.431Z,14.38
2023-11-18T03:41:18.801Z,13.65
2023-11-18T03:43:50.153Z,14.52
2023-11-18T03:46:19.472Z,14.02
2023-11-18T03:48:48.945Z,12.70
2023-11-18T03:51:18.884Z,11.95
2023-11-18T03:53:48.745Z,12.65
2023-11-18T03:56:20.627Z,16.65
2023-11-18T03:58:52.310Z,12.75
2023-11-18T04:01:23.578Z,14.15
2023-11-18T04:03:53.548Z,11.73
2023-11-18T04:06:25.581Z,13.75
2023-11-18T04:08:55.077Z,11.38
2023-11-18T04:11:24.869Z,10.68
2023-11-18T04:13:55.680Z,15.00
2023-11-18T04:16:24.803Z,12.52
2023-11-18T04:18:54.418Z,12.02
2023-11-18T04:21:23.631Z,11.90
2023-11-18T04:23:53.193Z,11.75
2023-11-18T04:26:22.364Z,11.18
2023-11-18T04:28:51.932Z,12.05
2023-11-18T04:31:22.705Z,14.80
2023-11-18T04:33:52.230Z,15.75
2023-11-18T04:36:23.278Z,14.25
2023-11-18T04:38:52.999Z,15.73
2023-11-18T04:41:22.214Z,12.45
2023-11-18T04:43:52.058Z,19.90
2023-11-18T04:46:23.167Z,12.45
2023-11-18T04:48:54.616Z,13.10
2023-11-18T04:51:24.837Z,17.95
2023-11-18T04:53:54.590Z,11.27
2023-11-18T04:56:24.269Z,14.13
2023-11-18T04:58:53.885Z,12.75
2023-11-18T05:01:24.484Z,14.02
2023-11-18T05:03:54.347Z,12.45
2023-11-18T05:06:23.936Z,12.90
2023-11-18T05:08:53.387Z,14.32
2023-11-18T05:11:22.741Z,13.20
2023-11-18T05:16:21.271Z,13.33
2023-11-18T05:18:52.377Z,12.90
2023-11-18T05:21:21.670Z,14.63
2023-11-18T05:23:52.122Z,16.45
2023-11-18T05:26:21.243Z,12.65
2023-11-18T05:28:51.422Z,15.40
2023-11-18T05:31:20.599Z,15.27
2023-11-18T05:33:56.579Z,15.10
2023-11-18T05:36:29.344Z,16.67
2023-11-18T05:38:59.327Z,15.98
2023-11-18T05:41:31.823Z,12.68
2023-11-18T05:44:01.855Z,17.55
2023-11-18T05:46:31.612Z,13.85
2023-11-18T05:49:08.871Z,15.95
2023-11-18T05:51:39.016Z,15.35
2023-11-18T05:54:08.948Z,18.23
2023-11-18T05:56:38.508Z,14.40
2023-11-18T06:01:38.676Z,12.85
2023-11-18T06:04:11.279Z,11.13
2023-11-18T06:06:40.713Z,15.43
2023-11-18T06:11:48.321Z,14.63
2023-11-18T06:14:19.462Z,14.80
2023-11-18T06:16:51.651Z,15.00
2023-11-18T06:19:22.606Z,15.32
2023-11-18T06:21:51.796Z,13.85
2023-11-18T06:24:22.799Z,13.05
2023-11-18T06:26:53.125Z,17.35
2023-11-18T06:29:23.053Z,17.33
2023-11-18T06:31:52.493Z,17.27
2023-11-18T06:34:23.677Z,17.45
2023-11-18T06:36:52.810Z,17.45
2023-11-18T06:39:27.028Z,11.48
2023-11-18T06:41:57.247Z,16.17
2023-11-18T06:44:27.179Z,19.75
2023-11-18T06:46:56.618Z,17.30
2023-11-18T06:51:56.811Z,13.70
2023-11-18T06:54:28.430Z,16.98
2023-11-18T06:56:57.636Z,16.63
2023-11-18T06:59:27.071Z,16.55
2023-11-18T07:01:56.597Z,15.57
2023-11-18T07:06:57.596Z,17.15
2023-11-18T07:09:27.300Z,19.00
2023-11-18T07:11:57.439Z,16.23
2023-11-18T07:14:28.340Z,20.88
2023-11-18T07:16:57.453Z,19.23
2023-11-18T07:19:30.105Z,19.90
2023-11-18T07:22:09.832Z,22.42
2023-11-18T07:24:40.253Z,18.98
2023-11-18T07:27:12.678Z,15.70
2023-11-18T07:29:43.149Z,20.17
2023-11-18T07:32:12.447Z,19.98
2023-11-18T07:34:43.285Z,21.40
2023-11-18T07:37:14.251Z,16.88
2023-11-18T07:39:46.225Z,19.48
2023-11-18T07:42:16.127Z,20.35
2023-11-18T07:44:45.825Z,18.85
2023-11-18T07:47:17.481Z,19.00
2023-11-18T07:49:49.353Z,17.85
2023-11-18T07:52:18.722Z,19.45
2023-11-18T07:54:52.313Z,22.88
2023-11-18T07:57:24.987Z,23.77
2023-11-18T07:59:56.622Z,26.48
2023-11-18T08:02:26.456Z,24.52
2023-11-18T08:04:57.934Z,21.02
2023-11-18T08:07:27.543Z,27.60
2023-11-18T08:09:56.964Z,32.08
2023-11-18T08:12:26.384Z,22.75
2023-11-18T08:17:26.648Z,27.33
2023-11-18T08:19:59.097Z,27.98
2023-11-18T08:22:29.235Z,22.52
2023-11-18T08:25:00.241Z,32.30
2023-11-18T08:27:29.697Z,33.42
2023-11-18T08:29:59.642Z,22.38
2023-11-18T08:35:00.010Z,32.33
2023-11-18T08:37:29.421Z,26.15
2023-11-18T08:42:29.104Z,30.63
2023-11-18T08:45:02.289Z,27.17
2023-11-18T08:47:33.665Z,29.73
2023-11-18T08:50:13.221Z,28.00
2023-11-18T08:52:44.849Z,22.17
2023-11-18T08:55:20.818Z,26.48
2023-11-18T08:57:59.620Z,25.50
2023-11-18T09:00:49.376Z,26.13
2023-11-18T09:03:26.226Z,27.33
2023-11-18T09:06:00.818Z,29.02
2023-11-18T09:08:33.597Z,25.17
2023-11-18T09:11:06.479Z,25.85
2023-11-18T09:13:37.154Z,23.08
2023-11-18T09:16:10.095Z,29.20
2023-11-18T09:18:43.345Z,26.85
2023-11-18T09:21:17.149Z,32.38
2023-11-18T09:23:49.289Z,30.30
2023-11-18T09:26:19.297Z,28.58
2023-11-18T09:28:51.101Z,26.65
2023-11-18T09:31:24.015Z,27.50
2023-11-18T09:33:54.634Z,26.75
2023-11-18T09:36:25.598Z,32.00
2023-11-18T09:38:55.036Z,28.58
2023-11-18T09:41:29.070Z,25.95
2023-11-18T09:44:03.854Z,27.67
2023-11-18T09:46:36.122Z,33.25
2023-11-18T09:49:17.298Z,29.27
2023-11-18T09:51:49.244Z,27.63
2023-11-18T09:54:30.581Z,25.23
2023-11-18T09:57:10.757Z,28.38
2023-11-18T09:59:54.619Z,28.33
2023-11-18T10:02:27.043Z,29.77
2023-11-18T10:04:59.783Z,36.63
2023-11-18T10:07:34.307Z,30.48
2023-11-18T10:10:06.179Z,27.33
2023-11-18T10:12:39.165Z,29.83
2023-11-18T10:15:13.754Z,29.52
2023-11-18T10:17:56.408Z,27.92
2023-11-18T10:20:46.040Z,22.23
2023-11-18T10:23:21.148Z,20.70
2023-11-18T10:25:51.786Z,21.45
2023-11-18T10:28:29.075Z,25.42
2023-11-18T10:31:00.228Z,20.92
2023-11-18T10:33:32.081Z,14.88
2023-11-18T10:36:04.980Z,17.85
2023-11-18T10:38:44.727Z,17.02
2023-11-18T10:41:14.429Z,13.48
2023-11-18T10:43:45.700Z,14.20
2023-11-18T10:46:15.897Z,12.60
2023-11-18T10:48:48.778Z,16.17
2023-11-18T10:51:21.104Z,14.15
2023-11-18T10:54:00.190Z,11.63
2023-11-18T10:56:30.677Z,13.13
2023-11-18T10:59:01.472Z,16.35
2023-11-18T11:01:33.356Z,13.82
2023-11-18T11:04:05.956Z,12.80
2023-11-18T11:06:36.131Z,14.80
2023-11-18T11:09:15.585Z,13.95
2023-11-18T11:11:50.285Z,14.68
2023-11-18T11:14:22.691Z,12.90
2023-11-18T11:16:56.909Z,14.90
2023-11-18T11:19:30.880Z,14.48
2023-11-18T11:22:08.438Z,14.23
2023-11-18T11:25:00.925Z,18.35
2023-11-18T11:27:41.178Z,12.27
2023-11-18T11:30:19.635Z,14.07
2023-11-18T11:32:55.205Z,17.05
2023-11-18T11:35:31.754Z,17.48
2023-11-18T11:38:11.051Z,18.73
2023-11-18T11:40:43.553Z,19.25
2023-11-18T11:43:17.035Z,16.95
2023-11-18T11:45:48.672Z,17.02
2023-11-18T11:48:27.436Z,16.63
2023-11-18T11:51:16.296Z,20.05
2023-11-18T11:53:50.085Z,26.27
2023-11-18T11:56:25.484Z,21.77
2023-11-18T11:58:55.113Z,25.48
2023-11-18T12:04:08.065Z,19.38
2023-11-18T12:06:45.469Z,24.35
2023-11-18T12:09:20.851Z,22.77
2023-11-18T12:11:52.323Z,22.83
2023-11-18T12:14:39.293Z,23.13
2023-11-18T12:17:10.982Z,23.15
2023-11-18T12:19:49.419Z,23.85
2023-11-18T12:22:26.082Z,21.93
2023-11-18T12:25:38.332Z,19.60
2023-11-18T12:28:16.165Z,21.05
2023-11-18T12:30:57.478Z,23.00
2023-11-18T12:33:30.052Z,19.35
2023-11-18T12:36:31.473Z,19.48
2023-11-18T12:39:45.671Z,17.63
2023-11-18T12:42:37.938Z,17.65
2023-11-18T12:45:37.737Z,16.23
2023-11-18T12:48:13.497Z,20.52
2023-11-18T12:50:47.569Z,16.20
2023-11-18T12:53:19.749Z,17.27
2023-11-18T12:55:54.578Z,18.05
2023-11-18T12:58:27.831Z,19.60
2023-11-18T13:01:01.481Z,23.80
2023-11-18T13:03:31.059Z,15.75
2023-11-18T13:06:02.100Z,21.25
2023-11-18T13:08:31.447Z,19.60
2023-11-18T13:11:06.242Z,17.50
2023-11-18T13:13:37.146Z,20.20
2023-11-18T13:16:10.098Z,21.70
2023-11-18T13:18:48.693Z,23.67
2023-11-18T13:21:18.901Z,20.73
2023-11-18T13:23:53.859Z,18.95
2023-11-18T13:26:23.982Z,22.70
2023-11-18T13:31:23.984Z,22.33
2023-11-18T13:33:54.607Z,20.80
2023-11-18T13:36:25.840Z,20.40
2023-11-18T13:38:55.946Z,20.67
2023-11-18T13:41:33.259Z,24.02
2023-11-18T13:44:04.022Z,23.02
2023-11-18T13:46:35.021Z,24.95
2023-11-18T13:49:07.156Z,21.65
2023-11-18T13:51:37.716Z,24.27
2023-11-18T13:54:08.201Z,24.85
2023-11-18T13:56:37.638Z,33.13
2023-11-18T13:59:08.022Z,30.13
2023-11-18T14:01:39.180Z,20.45
2023-11-18T14:04:10.312Z,23.40
2023-11-18T14:06:41.035Z,19.02
2023-11-18T14:09:12.600Z,23.67
2023-11-18T14:11:42.529Z,24.17
2023-11-18T14:14:11.662Z,27.85
2023-11-18T14:16:42.620Z,34.97
2023-11-18T14:19:12.311Z,35.88
2023-11-18T14:21:42.765Z,29.95
2023-11-18T14:26:43.118Z,29.75
2023-11-18T14:29:13.880Z,30.38
2023-11-18T14:31:45.151Z,33.05
2023-11-18T14:34:14.978Z,32.22
2023-11-18T14:36:46.026Z,31.70
2023-11-18T14:39:15.963Z,27.00
2023-11-18T14:41:45.516Z,31.83
2023-11-18T14:44:14.694Z,32.53
2023-11-18T14:49:16.461Z,37.75
2023-11-18T14:51:45.919Z,36.50
2023-11-18T14:54:15.131Z,40.75
2023-11-18T14:56:44.747Z,37.28
2023-11-18T14:59:13.947Z,35.83
2023-11-18T15:01:45.402Z,31.40
2023-11-18T15:04:16.193Z,28.42
2023-11-18T15:06:46.407Z,30.55
2023-11-18T15:09:15.778Z,32.90
2023-11-18T15:11:46.826Z,24.77
2023-11-18T15:14:16.393Z,31.52
2023-11-18T15:16:47.862Z,28.20
2023-11-18T15:19:19.106Z,34.65
2023-11-18T15:21:48.657Z,30.52
2023-11-18T15:24:18.726Z,39.95
2023-11-18T15:26:51.025Z,34.78
2023-11-18T15:29:21.305Z,31.00
2023-11-18T15:31:51.047Z,33.97
2023-11-18T15:34:22.361Z,31.98
2023-11-18T15:36:52.762Z,36.15
2023-11-18T15:41:51.430Z,33.40
2023-11-18T15:44:21.240Z,36.22
2023-11-18T15:46:51.767Z,42.42
2023-11-18T15:49:23.753Z,47.65
2023-11-18T15:51:53.617Z,41.97
2023-11-18T15:54:22.877Z,49.63
2023-11-18T15:56:52.298Z,44.83
2023-11-18T15:59:21.466Z,44.53
2023-11-18T16:01:50.826Z,49.13
2023-11-18T16:04:20.013Z,43.65
2023-11-18T16:06:51.252Z,45.60
2023-11-18T16:09:21.788Z,40.95
2023-11-18T16:11:52.014Z,46.88
2023-11-18T16:16:52.251Z,54.92
2023-11-18T16:19:23.121Z,48.03
2023-11-18T16:21:54.465Z,49.38
2023-11-18T16:24:23.598Z,55.95
2023-11-18T16:26:53.566Z,42.10
2023-11-18T16:29:22.685Z,47.83
2023-11-18T16:31:52.567Z,40.17
2023-11-18T16:34:23.570Z,48.38
2023-11-18T16:36:57.867Z,43.83
2023-11-18T16:39:27.826Z,36.92
2023-11-18T16:41:57.335Z,35.95
2023-11-18T16:44:26.404Z,35.65
2023-11-18T16:46:56.871Z,40.00
2023-11-18T16:49:27.790Z,32.72
2023-11-18T16:52:00.720Z,32.60
2023-11-18T16:54:39.007Z,36.00
2023-11-18T16:57:10.522Z,39.70
2023-11-18T16:59:40.492Z,39.13
2023-11-18T17:04:41.388Z,38.13
2023-11-18T17:07:15.118Z,34.55
2023-11-18T17:09:44.497Z,38.67
2023-11-18T17:12:13.866Z,38.13
2023-11-18T17:14:43.390Z,40.40
2023-11-18T17:17:12.991Z,34.17
2023-11-18T17:19:42.197Z,41.90
2023-11-18T17:22:13.481Z,39.90
2023-11-18T17:24:43.246Z,33.90
2023-11-18T17:27:13.233Z,34.55
2023-11-18T17:29:42.398Z,29.77
2023-11-18T17:32:12.455Z,29.60
2023-11-18T17:34:43.883Z,42.40
2023-11-18T17:37:15.371Z,36.70
2023-11-18T17:39:44.792Z,36.53
2023-11-18T17:42:14.211Z,28.75
2023-11-18T17:44:43.583Z,36.40
2023-11-18T17:47:13.064Z,35.45
2023-11-18T17:49:42.446Z,42.38
2023-11-18T17:52:13.556Z,33.95
2023-11-18T17:54:43.613Z,34.67
2023-11-18T17:57:16.209Z,40.00
2023-11-18T17:59:46.089Z,44.65
2023-11-18T18:02:16.916Z,41.15
2023-11-18T18:04:47.203Z,35.95
2023-11-18T18:07:18.295Z,38.25
2023-11-18T18:09:47.887Z,39.00
2023-11-18T18:12:17.274Z,31.60
2023-11-18T18:14:46.835Z,30.70
2023-11-18T18:19:48.911Z,33.25
2023-11-18T18:22:19.878Z,32.97
2023-11-18T18:24:49.061Z,39.33
2023-11-18T18:27:20.676Z,34.97
2023-11-18T18:29:50.687Z,29.60
2023-11-18T18:32:22.141Z,39.00
2023-11-18T18:34:52.746Z,34.47
2023-11-18T18:37:27.368Z,33.45
2023-11-18T18:39:57.291Z,37.67
2023-11-18T18:42:27.408Z,34.65
2023-11-18T18:44:57.705Z,40.15
2023-11-18T18:47:29.788Z,38.92
2023-11-18T18:50:02.639Z,37.95
2023-11-18T18:52:35.633Z,35.28
2023-11-18T18:55:07.636Z,40.42
2023-11-18T18:57:37.749Z,35.88
2023-11-18T19:00:13.422Z,38.47
2023-11-18T19:02:44.248Z,39.65
2023-11-18T19:05:14.630Z,50.75
2023-11-18T19:07:47.727Z,54.80
2023-11-18T19:10:17.738Z,47.85
2023-11-18T19:12:49.791Z,53.30
2023-11-18T19:15:20.088Z,50.13
2023-11-18T19:17:52.314Z,47.78
2023-11-18T19:20:22.680Z,54.72
2023-11-18T19:22:55.520Z,49.42
2023-11-18T19:25:24.824Z,52.95
2023-11-18T19:27:54.236Z,56.28
2023-11-18T19:30:28.000Z,46.03
2023-11-18T19:32:58.176Z,40.13
2023-11-18T19:35:30.808Z,38.55
2023-11-18T19:38:07.874Z,44.72
2023-11-18T19:40:38.578Z,42.33
2023-11-18T19:45:40.180Z,36.15
2023-11-18T19:48:09.703Z,39.88
2023-11-18T19:50:40.621Z,37.67
2023-11-18T19:53:13.983Z,39.03
2023-11-18T19:55:45.539Z,42.88
2023-11-18T19:58:16.379Z,46.25
2023-11-18T20:00:46.273Z,41.20
2023-11-18T20:03:17.108Z,38.03
2023-11-18T20:05:46.545Z,44.83
2023-11-18T20:08:18.384Z,46.33
2023-11-18T20:10:48.581Z,57.60
2023-11-18T20:13:19.066Z,57.65
2023-11-18T20:15:48.938Z,59.85
2023-11-18T20:18:19.825Z,62.92
2023-11-18T20:20:55.127Z,67.03
2023-11-18T20:23:28.808Z,63.53
2023-11-18T20:25:58.523Z,58.25
2023-11-18T20:30:57.063Z,69.20
2023-11-18T20:35:56.318Z,58.70
2023-11-18T20:38:28.753Z,59.28
2023-11-18T20:40:59.316Z,58.60
2023-11-18T20:43:31.144Z,62.97
2023-11-18T20:46:00.357Z,63.75
2023-11-18T20:48:33.149Z,65.20
2023-11-18T20:51:06.328Z,56.20
2023-11-18T20:53:38.115Z,62.97
2023-11-18T20:56:10.840Z,55.72
2023-11-18T20:58:42.590Z,58.10
2023-11-18T21:01:13.928Z,60.17
2023-11-18T21:03:44.820Z,62.78
2023-11-18T21:11:27.260Z,45.78
2023-11-18T21:13:57.294Z,37.47
2023-11-18T21:16:28.985Z,39.45
2023-11-18T21:19:02.758Z,36.75
2023-11-18T21:21:32.101Z,39.60
2023-11-18T21:26:33.960Z,33.58
2023-11-18T21:29:03.626Z,34.58
2023-11-18T21:31:34.561Z,36.88
2023-11-18T21:34:05.797Z,34.28
2023-11-18T21:36:38.930Z,41.63
2023-11-18T21:39:16.472Z,40.47
2023-11-18T21:41:46.381Z,34.85
2023-11-18T21:44:22.061Z,33.80
2023-11-18T21:46:52.091Z,36.17
2023-11-18T21:49:21.702Z,38.70
2023-11-18T21:51:51.436Z,30.55
2023-11-18T21:56:51.312Z,33.55
2023-11-18T21:59:20.711Z,33.25
2023-11-18T22:01:50.440Z,29.63
2023-11-18T22:04:21.514Z,29.38
2023-11-18T22:06:53.550Z,28.88
2023-11-18T22:09:27.341Z,34.30
2023-11-18T22:11:57.259Z,29.67
2023-11-18T22:14:27.396Z,34.85
2023-11-18T22:16:59.107Z,33.45
2023-11-18T22:19:29.795Z,30.67
2023-11-18T22:21:58.962Z,35.78
2023-11-18T22:24:30.366Z,29.25
2023-11-18T22:26:59.555Z,27.95
2023-11-18T22:29:30.260Z,31.85
2023-11-18T22:31:59.615Z,33.63
2023-11-18T22:34:29.192Z,37.22
2023-11-18T22:36:58.485Z,32.17
2023-11-18T22:41:59.282Z,26.25
2023-11-18T22:44:28.691Z,31.17
2023-11-18T22:46:59.170Z,33.15
2023-11-18T22:49:28.980Z,36.35
2023-11-18T22:51:58.450Z,34.10
2023-11-18T22:56:58.442Z,30.23
2023-11-18T22:59:27.838Z,32.33
2023-11-18T23:01:57.730Z,32.95
2023-11-18T23:04:29.210Z,30.98
2023-11-18T23:06:58.779Z,32.13
2023-11-18T23:11:58.666Z,31.40
2023-11-18T23:14:29.787Z,34.17
2023-11-18T23:17:08.212Z,33.33
2023-11-18T23:19:47.796Z,34.95
2023-11-18T23:22:20.583Z,30.20
2023-11-18T23:24:51.673Z,39.75
2023-11-18T23:27:20.961Z,29.98
2023-11-18T23:29:50.648Z,38.35
2023-11-18T23:32:20.701Z,32.75
2023-11-18T23:34:50.505Z,39.75
2023-11-18T23:37:20.373Z,38.08
2023-11-18T23:39:55.331Z,41.63
2023-11-18T23:42:24.729Z,36.28
2023-11-18T23:44:54.462Z,39.60
2023-11-18T23:47:23.765Z,33.55
2023-11-18T23:52:25.330Z,33.45
2023-11-18T23:54:56.298Z,36.25
2023-11-18T23:57:25.586Z,37.05
2023-11-18T23:59:56.865Z,35.03
